createdAt,value
2024-03-20T00:00:23.268Z,5.01
2024-03-20T00:01:46.994Z,4.56
2024-03-20T00:02:48.501Z,4.27
2024-03-20T00:03:50.178Z,4.03
2024-03-20T00:04:52.079Z,4.02
2024-03-20T00:05:54.643Z,4.47
2024-03-20T00:06:56.214Z,5.18
2024-03-20T00:07:57.821Z,5.94
2024-03-20T00:09:01.398Z,6.65
2024-03-20T00:10:03.723Z,7.19
2024-03-20T00:11:07.313Z,7.22
2024-03-20T00:12:09.165Z,6.89
2024-03-20T00:13:10.663Z,6.43
2024-03-20T00:14:12.204Z,5.98
2024-03-20T00:15:13.852Z,5.55
2024-03-20T00:16:15.545Z,5.17
2024-03-20T00:17:17.172Z,4.83
2024-03-20T00:18:18.821Z,4.53
2024-03-20T00:19:20.912Z,4.26
2024-03-20T00:20:25.391Z,4.01
2024-03-20T00:21:27.270Z,3.90
2024-03-20T00:22:30.776Z,4.24
2024-03-20T00:23:32.387Z,4.93
2024-03-20T00:24:34.352Z,5.67
2024-03-20T00:25:35.938Z,6.40
2024-03-20T00:26:37.447Z,6.91
2024-03-20T00:27:39.017Z,6.92
2024-03-20T00:28:40.625Z,6.60
2024-03-20T00:29:42.302Z,6.14
2024-03-20T00:30:43.916Z,5.68
2024-03-20T00:31:45.428Z,5.26
2024-03-20T00:32:47.041Z,4.88
2024-03-20T00:33:48.650Z,4.54
2024-03-20T00:34:50.322Z,4.24
2024-03-20T00:35:51.844Z,3.98
2024-03-20T00:36:53.418Z,3.75
2024-03-20T00:37:55.048Z,3.76
2024-03-20T00:38:56.643Z,4.22
2024-03-20T00:39:58.259Z,4.93
2024-03-20T00:41:00.127Z,5.69
2024-03-20T00:42:01.704Z,6.41
2024-03-20T00:43:03.387Z,6.91
2024-03-20T00:44:05.151Z,6.90
2024-03-20T00:45:07.125Z,6.56
2024-03-20T00:46:08.616Z,6.11
2024-03-20T00:47:10.328Z,5.64
2024-03-20T00:48:12.129Z,5.20
2024-03-20T00:49:13.705Z,4.80
2024-03-20T00:50:15.527Z,4.45
2024-03-20T00:51:17.179Z,4.14
2024-03-20T00:52:18.819Z,3.85
2024-03-20T00:53:20.538Z,3.61
2024-03-20T00:54:22.149Z,3.63
2024-03-20T00:55:24.091Z,4.08
2024-03-20T00:56:25.697Z,4.79
2024-03-20T00:57:27.406Z,5.54
2024-03-20T00:58:30.782Z,6.25
2024-03-20T00:59:32.439Z,6.76
2024-03-20T01:00:33.988Z,6.75
2024-03-20T01:01:35.797Z,6.40
2024-03-20T01:02:37.349Z,5.92
2024-03-20T01:03:39.036Z,5.42
2024-03-20T01:04:40.548Z,4.95
2024-03-20T01:05:42.336Z,4.53
2024-03-20T01:06:44.793Z,4.17
2024-03-20T01:07:46.357Z,3.85
2024-03-20T01:08:47.935Z,3.60
2024-03-20T01:09:49.473Z,3.68
2024-03-20T01:10:51.197Z,4.20
2024-03-20T01:11:52.775Z,4.94
2024-03-20T01:12:54.322Z,5.68
2024-03-20T01:13:55.848Z,6.38
2024-03-20T01:14:57.395Z,6.96
2024-03-20T01:15:59.492Z,7.11
2024-03-20T01:17:01.046Z,6.83
2024-03-20T01:18:03.042Z,6.38
2024-03-20T01:19:04.544Z,5.89
2024-03-20T01:20:08.156Z,5.43
2024-03-20T01:21:10.053Z,4.99
2024-03-20T01:22:12.183Z,4.62
2024-03-20T01:23:14.347Z,4.29
2024-03-20T01:24:15.863Z,4.00
2024-03-20T01:25:18.044Z,3.77
2024-03-20T01:26:20.900Z,3.85
2024-03-20T01:27:22.462Z,4.39
2024-03-20T01:28:27.921Z,5.10
2024-03-20T01:29:29.737Z,5.88
2024-03-20T01:30:31.261Z,6.56
2024-03-20T01:31:32.874Z,7.03
2024-03-20T01:32:34.484Z,7.02
2024-03-20T01:33:36.016Z,6.66
2024-03-20T01:34:37.744Z,6.19
2024-03-20T01:35:39.322Z,5.71
2024-03-20T01:36:40.923Z,5.26
2024-03-20T01:37:42.459Z,4.86
2024-03-20T01:38:44.046Z,4.51
2024-03-20T01:39:45.606Z,4.18
2024-03-20T01:40:47.130Z,3.91
2024-03-20T01:41:48.879Z,3.88
2024-03-20T01:42:54.569Z,4.31
2024-03-20T01:43:56.193Z,5.05
2024-03-20T01:45:21.384Z,5.79
2024-03-20T01:46:35.983Z,6.72
2024-03-20T01:47:37.530Z,6.99
2024-03-20T01:48:39.233Z,6.73
2024-03-20T01:49:41.225Z,6.28
2024-03-20T01:50:44.415Z,5.80
2024-03-20T01:51:47.350Z,5.32
2024-03-20T01:52:56.084Z,4.90
2024-03-20T01:53:59.436Z,4.51
2024-03-20T01:55:02.294Z,4.19
2024-03-20T01:56:04.103Z,3.91
2024-03-20T01:57:05.784Z,3.77
2024-03-20T01:58:07.738Z,4.06
2024-03-20T01:59:10.404Z,4.69
2024-03-20T02:00:14.019Z,5.44
2024-03-20T02:01:16.637Z,6.19
2024-03-20T02:02:18.298Z,6.83
2024-03-20T02:03:20.246Z,7.11
2024-03-20T02:04:21.862Z,6.92
2024-03-20T02:05:23.760Z,6.49
2024-03-20T02:06:28.420Z,6.01
2024-03-20T02:07:30.038Z,5.51
2024-03-20T02:08:31.761Z,5.07
2024-03-20T02:09:33.352Z,4.69
2024-03-20T02:10:34.963Z,4.37
2024-03-20T02:11:36.590Z,4.07
2024-03-20T02:12:38.637Z,3.82
2024-03-20T02:13:47.313Z,3.69
2024-03-20T02:14:48.871Z,4.05
2024-03-20T02:15:50.470Z,4.73
2024-03-20T02:16:52.703Z,5.49
2024-03-20T02:17:54.377Z,6.23
2024-03-20T02:18:56.744Z,6.84
2024-03-20T02:19:58.264Z,7.03
2024-03-20T02:21:06.037Z,6.79
2024-03-20T02:22:07.558Z,6.32
2024-03-20T02:23:09.739Z,5.85
2024-03-20T02:24:11.235Z,5.41
2024-03-20T02:25:13.005Z,5.01
2024-03-20T02:26:14.616Z,4.65
2024-03-20T02:27:16.580Z,4.33
2024-03-20T02:28:18.307Z,4.05
2024-03-20T02:29:19.843Z,3.81
2024-03-20T02:30:21.818Z,3.85
2024-03-20T02:31:23.437Z,4.32
2024-03-20T02:32:25.403Z,5.03
2024-03-20T02:33:27.651Z,5.79
2024-03-20T02:34:29.304Z,6.49
2024-03-20T02:35:30.801Z,6.93
2024-03-20T02:36:32.377Z,6.87
2024-03-20T02:37:33.999Z,6.51
2024-03-20T02:38:38.446Z,6.06
2024-03-20T02:39:39.947Z,5.57
2024-03-20T02:40:41.430Z,5.15
2024-03-20T02:41:43.953Z,4.79
2024-03-20T02:42:45.490Z,4.44
2024-03-20T02:43:47.096Z,4.15
2024-03-20T02:44:49.668Z,3.89
2024-03-20T02:45:51.448Z,3.78
2024-03-20T02:46:52.949Z,4.14
2024-03-20T02:47:54.496Z,4.83
2024-03-20T02:48:56.037Z,5.60
2024-03-20T02:49:58.244Z,6.33
2024-03-20T02:50:59.727Z,6.94
2024-03-20T02:52:01.786Z,7.09
2024-03-20T02:53:04.672Z,6.83
2024-03-20T02:54:06.267Z,6.37
2024-03-20T02:55:08.540Z,5.91
2024-03-20T02:56:10.330Z,5.45
2024-03-20T02:57:11.852Z,5.05
2024-03-20T02:58:13.665Z,4.69
2024-03-20T02:59:15.243Z,4.38
2024-03-20T03:00:17.740Z,4.10
2024-03-20T03:01:19.262Z,3.87
2024-03-20T03:02:20.781Z,3.97
2024-03-20T03:03:22.319Z,4.49
2024-03-20T03:04:24.019Z,5.22
2024-03-20T03:05:27.438Z,5.96
2024-03-20T03:06:28.984Z,6.68
2024-03-20T03:07:31.525Z,7.07
2024-03-20T03:08:33.376Z,6.97
2024-03-20T03:09:35.020Z,6.57
2024-03-20T03:10:36.520Z,6.11
2024-03-20T03:11:38.092Z,5.64
2024-03-20T03:12:39.661Z,5.20
2024-03-20T03:13:42.225Z,4.83
2024-03-20T03:14:49.281Z,4.49
2024-03-20T03:15:52.507Z,4.16
2024-03-20T03:16:54.200Z,3.90
2024-03-20T03:17:56.008Z,3.74
2024-03-20T03:18:57.629Z,3.99
2024-03-20T03:19:59.240Z,4.60
2024-03-20T03:21:00.823Z,5.36
2024-03-20T03:22:02.496Z,6.10
2024-03-20T03:23:04.311Z,6.72
2024-03-20T03:24:06.270Z,6.91
2024-03-20T03:25:11.706Z,6.67
2024-03-20T03:26:13.941Z,6.20
2024-03-20T03:27:15.582Z,5.73
2024-03-20T03:28:17.059Z,5.30
2024-03-20T03:29:18.617Z,4.90
2024-03-20T03:30:20.182Z,4.54
2024-03-20T03:31:21.753Z,4.23
2024-03-20T03:32:23.225Z,3.96
2024-03-20T03:33:24.789Z,3.71
2024-03-20T03:34:26.374Z,3.61
2024-03-20T03:35:28.491Z,3.93
2024-03-20T03:36:32.438Z,4.60
2024-03-20T03:37:34.883Z,5.37
2024-03-20T03:38:36.653Z,6.11
2024-03-20T03:39:38.190Z,6.71
2024-03-20T03:40:39.714Z,6.86
2024-03-20T03:41:41.297Z,6.59
2024-03-20T03:42:42.896Z,6.14
2024-03-20T03:43:44.559Z,5.66
2024-03-20T03:44:46.932Z,5.20
2024-03-20T03:45:48.631Z,4.79
2024-03-20T03:46:51.963Z,4.44
2024-03-20T03:47:53.457Z,4.12
2024-03-20T03:48:54.950Z,3.85
2024-03-20T03:49:57.418Z,3.61
2024-03-20T03:50:59.101Z,3.62
2024-03-20T03:52:00.784Z,4.07
2024-03-20T03:53:02.410Z,4.76
2024-03-20T03:54:03.949Z,5.50
2024-03-20T03:55:05.801Z,6.21
2024-03-20T03:56:07.292Z,6.69
2024-03-20T03:57:08.754Z,6.66
2024-03-20T03:58:10.794Z,6.30
2024-03-20T03:59:12.304Z,5.84
2024-03-20T04:00:15.366Z,5.36
2024-03-20T04:01:16.939Z,4.91
2024-03-20T04:02:18.450Z,4.52
2024-03-20T04:03:23.913Z,4.17
2024-03-20T04:04:25.465Z,3.86
2024-03-20T04:05:27.449Z,3.61
2024-03-20T04:06:29.153Z,3.58
2024-03-20T04:07:31.556Z,3.99
2024-03-20T04:08:33.136Z,4.70
2024-03-20T04:09:34.659Z,5.44
2024-03-20T04:10:37.490Z,6.16
2024-03-20T04:11:38.995Z,6.69
2024-03-20T04:12:40.477Z,6.71
2024-03-20T04:13:42.650Z,6.38
2024-03-20T04:14:45.681Z,5.92
2024-03-20T04:15:47.770Z,5.42
2024-03-20T04:16:49.239Z,4.97
2024-03-20T04:17:50.826Z,4.56
2024-03-20T04:18:52.427Z,4.19
2024-03-20T04:19:54.279Z,3.88
2024-03-20T04:20:55.912Z,3.62
2024-03-20T04:21:58.648Z,3.68
2024-03-20T04:23:00.216Z,4.18
2024-03-20T04:24:01.887Z,4.90
2024-03-20T04:25:04.271Z,5.64
2024-03-20T04:26:06.063Z,6.35
2024-03-20T04:27:07.551Z,6.79
2024-03-20T04:28:10.190Z,6.76
2024-03-20T04:29:12.000Z,6.38
2024-03-20T04:30:13.536Z,5.90
2024-03-20T04:31:15.237Z,5.42
2024-03-20T04:32:16.730Z,4.98
2024-03-20T04:33:18.216Z,4.59
2024-03-20T04:34:19.867Z,4.25
2024-03-20T04:35:21.500Z,3.94
2024-03-20T04:36:23.282Z,3.68
2024-03-20T04:37:24.913Z,3.60
2024-03-20T04:38:26.490Z,3.96
2024-03-20T04:39:29.723Z,4.63
2024-03-20T04:40:31.447Z,5.39
2024-03-20T04:41:34.021Z,6.10
2024-03-20T04:42:35.701Z,6.70
2024-03-20T04:43:37.359Z,6.90
2024-03-20T04:44:39.983Z,6.65
2024-03-20T04:45:41.562Z,6.20
2024-03-20T04:46:43.193Z,5.70
2024-03-20T04:47:44.769Z,5.24
2024-03-20T04:48:46.371Z,4.82
2024-03-20T04:49:47.962Z,4.45
2024-03-20T04:50:49.484Z,4.13
2024-03-20T04:51:51.024Z,3.84
2024-03-20T04:52:52.533Z,3.63
2024-03-20T04:53:54.040Z,3.80
2024-03-20T04:54:56.993Z,4.37
2024-03-20T04:55:58.534Z,5.11
2024-03-20T04:57:00.080Z,5.85
2024-03-20T04:58:01.640Z,6.51
2024-03-20T04:59:03.129Z,6.86
2024-03-20T05:00:13.975Z,6.72
2024-03-20T05:01:15.761Z,6.24
2024-03-20T05:02:17.568Z,5.75
2024-03-20T05:03:19.063Z,5.27
2024-03-20T05:04:20.595Z,4.84
2024-03-20T05:05:22.357Z,4.45
2024-03-20T05:06:23.961Z,4.11
2024-03-20T05:07:25.606Z,3.81
2024-03-20T05:08:27.423Z,3.71
2024-03-20T05:09:29.067Z,4.06
2024-03-20T05:10:30.582Z,4.73
2024-03-20T05:11:32.478Z,5.48
2024-03-20T05:12:34.940Z,6.20
2024-03-20T05:13:36.555Z,6.83
2024-03-20T05:14:38.146Z,7.05
2024-03-20T05:15:40.139Z,6.81
2024-03-20T05:16:44.268Z,6.36
2024-03-20T05:17:46.232Z,5.85
2024-03-20T05:18:47.712Z,5.39
2024-03-20T05:19:49.217Z,4.97
2024-03-20T05:20:50.715Z,4.61
2024-03-20T05:21:52.287Z,4.28
2024-03-20T05:22:53.863Z,4.00
2024-03-20T05:23:55.400Z,3.99
2024-03-20T05:24:56.944Z,4.42
2024-03-20T05:25:59.042Z,5.13
2024-03-20T05:27:00.861Z,5.87
2024-03-20T05:28:02.633Z,6.57
2024-03-20T05:29:04.266Z,7.15
2024-03-20T05:30:06.722Z,7.34
2024-03-20T05:31:08.357Z,7.07
2024-03-20T05:32:10.632Z,6.63
2024-03-20T05:33:12.692Z,6.12
2024-03-20T05:34:14.198Z,5.64
2024-03-20T05:35:15.768Z,5.21
2024-03-20T05:36:17.386Z,4.83
2024-03-20T05:37:18.899Z,4.50
2024-03-20T05:38:20.445Z,4.24
2024-03-20T05:39:21.991Z,4.33
2024-03-20T05:40:23.971Z,4.85
2024-03-20T05:41:25.586Z,5.57
2024-03-20T05:42:27.356Z,6.31
2024-03-20T05:43:28.961Z,7.00
2024-03-20T05:44:30.719Z,7.54
2024-03-20T05:45:32.345Z,7.66
2024-03-20T05:46:34.437Z,7.36
2024-03-20T05:47:35.959Z,6.91
2024-03-20T05:48:42.627Z,6.44
2024-03-20T05:49:44.364Z,5.96
2024-03-20T05:50:45.852Z,5.56
2024-03-20T05:51:48.505Z,5.22
2024-03-20T05:52:49.993Z,4.91
2024-03-20T05:53:51.622Z,4.65
2024-03-20T05:54:53.299Z,4.64
2024-03-20T05:55:55.429Z,5.07
2024-03-20T05:56:56.929Z,5.79
2024-03-20T05:57:58.443Z,6.55
2024-03-20T05:59:00.018Z,7.27
2024-03-20T06:00:02.131Z,7.88
2024-03-20T06:01:06.018Z,8.09
2024-03-20T06:02:07.613Z,7.87
2024-03-20T06:03:09.513Z,7.46
2024-03-20T06:04:11.418Z,7.01
2024-03-20T06:05:13.378Z,6.60
2024-03-20T06:06:14.991Z,6.23
2024-03-20T06:07:16.497Z,5.91
2024-03-20T06:08:18.045Z,5.61
2024-03-20T06:09:19.716Z,5.36
2024-03-20T06:10:21.834Z,5.16
2024-03-20T06:11:23.463Z,5.23
2024-03-20T06:12:26.048Z,5.74
2024-03-20T06:13:28.528Z,6.48
2024-03-20T06:14:31.055Z,7.26
2024-03-20T06:15:34.811Z,7.98
2024-03-20T06:16:37.421Z,8.46
2024-03-20T06:17:39.175Z,8.39
2024-03-20T06:18:41.046Z,8.03
2024-03-20T06:19:42.673Z,7.60
2024-03-20T06:20:44.275Z,7.16
2024-03-20T06:21:45.896Z,6.76
2024-03-20T06:22:47.486Z,6.42
2024-03-20T06:23:49.118Z,6.12
2024-03-20T06:24:51.043Z,5.86
2024-03-20T06:25:52.532Z,5.63
2024-03-20T06:26:54.061Z,5.46
2024-03-20T06:27:55.683Z,5.52
2024-03-20T06:28:57.268Z,6.02
2024-03-20T06:29:59.097Z,6.75
2024-03-20T06:31:00.680Z,7.53
2024-03-20T06:32:02.307Z,8.24
2024-03-20T06:33:06.288Z,8.58
2024-03-20T06:34:11.418Z,8.46
2024-03-20T06:35:13.793Z,8.07
2024-03-20T06:36:15.530Z,7.67
2024-03-20T06:37:18.026Z,7.29
2024-03-20T06:38:19.939Z,6.93
2024-03-20T06:39:21.539Z,6.63
2024-03-20T06:40:26.291Z,6.37
2024-03-20T06:41:28.077Z,6.12
2024-03-20T06:42:29.659Z,5.91
2024-03-20T06:43:34.741Z,5.72
2024-03-20T06:44:36.447Z,5.54
2024-03-20T06:45:43.329Z,5.39
2024-03-20T06:46:45.544Z,5.56
2024-03-20T06:47:47.052Z,6.18
2024-03-20T06:48:48.663Z,6.95
2024-03-20T06:49:51.105Z,7.76
2024-03-20T06:50:52.793Z,8.45
2024-03-20T06:51:54.332Z,8.67
2024-03-20T06:52:58.110Z,8.48
2024-03-20T06:54:01.559Z,8.10
2024-03-20T06:55:03.407Z,7.69
2024-03-20T06:56:06.079Z,7.32
2024-03-20T06:57:09.359Z,6.99
2024-03-20T06:58:12.033Z,6.71
2024-03-20T06:59:14.648Z,6.46
2024-03-20T07:00:19.162Z,6.25
2024-03-20T07:01:20.852Z,6.07
2024-03-20T07:02:22.348Z,5.91
2024-03-20T07:03:24.021Z,5.78
2024-03-20T07:04:30.505Z,5.65
2024-03-20T07:05:32.475Z,5.55
2024-03-20T07:06:34.178Z,5.79
2024-03-20T07:07:35.765Z,6.44
2024-03-20T07:08:37.619Z,7.27
2024-03-20T07:09:39.237Z,8.11
2024-03-20T07:10:40.741Z,8.86
2024-03-20T07:11:45.436Z,9.17
2024-03-20T07:12:48.664Z,9.03
2024-03-20T07:13:50.250Z,8.72
2024-03-20T07:14:51.822Z,8.36
2024-03-20T07:15:53.361Z,8.00
2024-03-20T07:16:59.651Z,7.70
2024-03-20T07:18:03.525Z,7.41
2024-03-20T07:19:05.399Z,7.19
2024-03-20T07:20:09.714Z,7.00
2024-03-20T07:21:11.439Z,6.81
2024-03-20T07:22:15.613Z,6.64
2024-03-20T07:23:17.339Z,6.49
2024-03-20T07:24:18.890Z,6.36
2024-03-20T07:25:22.272Z,6.26
2024-03-20T07:26:23.813Z,6.15
2024-03-20T07:27:25.465Z,6.06
2024-03-20T07:28:27.000Z,5.99
2024-03-20T07:29:30.122Z,5.99
2024-03-20T07:30:31.776Z,6.42
2024-03-20T07:31:38.427Z,7.17
2024-03-20T07:32:40.605Z,8.10
2024-03-20T07:33:42.229Z,8.93
2024-03-20T07:34:44.514Z,9.36
2024-03-20T07:35:47.619Z,9.33
2024-03-20T07:36:49.194Z,9.04
2024-03-20T07:37:54.154Z,8.69
2024-03-20T07:38:57.121Z,8.32
2024-03-20T07:39:58.750Z,8.00
2024-03-20T07:41:00.289Z,7.74
2024-03-20T07:42:03.778Z,7.52
2024-03-20T07:43:05.402Z,7.33
2024-03-20T07:44:06.947Z,7.17
2024-03-20T07:45:09.158Z,7.03
2024-03-20T07:46:13.687Z,6.91
2024-03-20T07:47:15.608Z,6.79
2024-03-20T07:48:17.158Z,6.69
2024-03-20T07:49:18.744Z,6.60
2024-03-20T07:50:20.432Z,6.51
2024-03-20T07:51:21.949Z,6.43
2024-03-20T07:52:26.271Z,6.37
2024-03-20T07:53:29.764Z,6.32
2024-03-20T07:54:31.370Z,6.26
2024-03-20T07:55:33.267Z,6.24
2024-03-20T07:56:34.947Z,6.52
2024-03-20T07:57:36.619Z,7.18
2024-03-20T07:58:38.528Z,8.04
2024-03-20T07:59:40.085Z,8.87
2024-03-20T08:00:41.661Z,9.32
2024-03-20T08:01:43.221Z,9.32
2024-03-20T08:02:45.343Z,9.10
2024-03-20T08:03:49.425Z,8.82
2024-03-20T08:04:50.970Z,8.54
2024-03-20T08:05:52.469Z,8.28
2024-03-20T08:06:54.761Z,8.08
2024-03-20T08:07:56.302Z,7.92
2024-03-20T08:08:57.874Z,7.78
2024-03-20T08:09:59.437Z,7.67
2024-03-20T08:11:01.279Z,7.57
2024-03-20T08:12:03.109Z,7.49
2024-03-20T08:13:04.765Z,7.42
2024-03-20T08:14:09.063Z,7.36
2024-03-20T08:15:11.002Z,7.31
2024-03-20T08:16:12.593Z,7.26
2024-03-20T08:17:14.198Z,7.21
2024-03-20T08:18:16.904Z,7.15
2024-03-20T08:19:18.816Z,7.08
2024-03-20T08:20:22.668Z,6.99
2024-03-20T08:21:24.549Z,6.92
2024-03-20T08:22:26.798Z,6.87
2024-03-20T08:23:28.602Z,6.82
2024-03-20T08:24:30.248Z,6.79
2024-03-20T08:25:32.170Z,6.76
2024-03-20T08:26:33.808Z,6.75
2024-03-20T08:27:36.065Z,6.72
2024-03-20T08:28:37.698Z,6.70
2024-03-20T08:29:39.374Z,6.68
2024-03-20T08:30:40.862Z,6.66
2024-03-20T08:31:42.613Z,6.64
2024-03-20T08:32:44.206Z,6.62
2024-03-20T08:33:46.132Z,6.59
2024-03-20T08:34:47.903Z,6.57
2024-03-20T08:35:56.132Z,6.55
2024-03-20T08:36:57.726Z,6.54
2024-03-20T08:37:59.200Z,6.52
2024-03-20T08:39:00.812Z,6.50
2024-03-20T08:40:03.994Z,6.49
2024-03-20T08:41:05.976Z,6.48
2024-03-20T08:42:09.572Z,6.47
2024-03-20T08:43:19.839Z,6.45
2024-03-20T08:44:24.837Z,6.44
2024-03-20T08:45:26.486Z,6.45
2024-03-20T08:46:28.384Z,6.67
2024-03-20T08:47:30.739Z,7.30
2024-03-20T08:48:32.402Z,8.20
2024-03-20T08:49:37.643Z,9.03
2024-03-20T08:50:44.701Z,9.46
2024-03-20T08:51:48.380Z,9.44
2024-03-20T08:52:50.770Z,9.25
2024-03-20T08:53:52.335Z,9.02
2024-03-20T08:54:53.875Z,8.83
2024-03-20T08:55:56.362Z,8.65
2024-03-20T08:56:57.897Z,8.49
2024-03-20T08:57:59.496Z,8.36
2024-03-20T08:59:01.347Z,8.23
2024-03-20T09:00:06.875Z,8.12
2024-03-20T09:01:08.540Z,8.03
2024-03-20T09:02:10.327Z,7.97
2024-03-20T09:03:14.639Z,7.92
2024-03-20T09:04:16.561Z,7.89
2024-03-20T09:05:18.449Z,7.84
2024-03-20T09:06:20.109Z,7.77
2024-03-20T09:07:21.694Z,7.70
2024-03-20T09:08:23.252Z,7.65
2024-03-20T09:09:25.078Z,7.61
2024-03-20T09:10:26.611Z,7.59
2024-03-20T09:11:29.085Z,7.58
2024-03-20T09:12:30.934Z,7.58
2024-03-20T09:13:32.603Z,7.58
2024-03-20T09:14:34.718Z,7.59
2024-03-20T09:15:36.321Z,7.59
2024-03-20T09:16:37.889Z,7.60
2024-03-20T09:17:39.585Z,7.62
2024-03-20T09:18:41.964Z,7.64
2024-03-20T09:19:43.555Z,7.67
2024-03-20T09:20:45.044Z,7.69
2024-03-20T09:21:46.873Z,7.71
2024-03-20T09:22:49.893Z,7.73
2024-03-20T09:23:51.639Z,7.75
2024-03-20T09:24:53.152Z,7.78
2024-03-20T09:25:54.703Z,7.82
2024-03-20T09:26:56.610Z,7.86
2024-03-20T09:28:00.459Z,7.90
2024-03-20T09:29:02.032Z,7.95
2024-03-20T09:30:04.226Z,8.00
2024-03-20T09:31:05.823Z,8.06
2024-03-20T09:32:08.757Z,8.12
2024-03-20T09:33:11.503Z,8.19
2024-03-20T09:34:13.091Z,8.26
2024-03-20T09:35:14.735Z,8.32
2024-03-20T09:36:16.498Z,8.38
2024-03-20T09:37:19.900Z,8.44
2024-03-20T09:38:21.474Z,8.49
2024-03-20T09:39:23.682Z,8.51
2024-03-20T09:40:27.107Z,8.51
2024-03-20T09:41:35.390Z,8.51
2024-03-20T09:42:39.850Z,8.49
2024-03-20T09:43:41.834Z,8.48
2024-03-20T09:44:43.708Z,8.48
2024-03-20T09:45:45.543Z,8.51
2024-03-20T09:46:51.263Z,8.55
2024-03-20T09:47:56.249Z,8.60
2024-03-20T09:48:57.895Z,8.66
2024-03-20T09:50:00.293Z,8.71
2024-03-20T09:51:02.248Z,8.76
2024-03-20T09:52:05.285Z,8.80
2024-03-20T09:53:08.816Z,8.85
2024-03-20T09:54:10.486Z,8.90
2024-03-20T09:55:17.271Z,8.97
2024-03-20T09:56:21.759Z,9.04
2024-03-20T09:57:25.144Z,9.11
2024-03-20T09:58:27.212Z,9.18
2024-03-20T09:59:32.251Z,9.25
2024-03-20T10:00:33.816Z,9.30
2024-03-20T10:01:35.896Z,9.36
2024-03-20T10:02:37.439Z,9.41
2024-03-20T10:03:40.180Z,9.45
2024-03-20T10:04:49.541Z,9.51
2024-03-20T10:05:57.335Z,9.56
2024-03-20T10:06:58.963Z,9.61
2024-03-20T10:08:00.588Z,9.64
2024-03-20T10:09:09.987Z,9.69
2024-03-20T10:10:14.264Z,9.73
2024-03-20T10:11:16.021Z,9.76
2024-03-20T10:12:17.963Z,9.79
2024-03-20T10:13:19.530Z,9.82
2024-03-20T10:14:22.979Z,9.83
2024-03-20T10:15:25.102Z,9.86
2024-03-20T10:16:30.373Z,9.89
2024-03-20T10:17:34.686Z,9.92
2024-03-20T10:18:36.419Z,9.95
2024-03-20T10:19:39.452Z,9.96
2024-03-20T10:20:40.986Z,9.98
2024-03-20T10:21:44.634Z,10.00
2024-03-20T10:22:56.694Z,10.03
2024-03-20T10:24:00.239Z,10.07
2024-03-20T10:25:01.848Z,10.11
2024-03-20T10:26:03.658Z,10.14
2024-03-20T10:27:08.109Z,10.18
2024-03-20T10:28:14.894Z,10.21
2024-03-20T10:29:20.573Z,10.23
2024-03-20T10:30:31.508Z,10.24
2024-03-20T10:31:36.032Z,10.24
2024-03-20T10:32:39.457Z,10.24
2024-03-20T10:33:44.404Z,10.25
2024-03-20T10:34:48.785Z,10.27
2024-03-20T10:35:53.550Z,10.32
2024-03-20T10:36:56.231Z,10.37
2024-03-20T10:37:58.700Z,10.41
2024-03-20T10:39:12.177Z,10.46
2024-03-20T10:40:22.755Z,10.52
2024-03-20T10:41:24.978Z,10.56
2024-03-20T10:42:29.156Z,10.59
2024-03-20T10:43:30.695Z,10.60
2024-03-20T10:44:33.222Z,10.59
2024-03-20T10:45:37.165Z,10.58
2024-03-20T10:46:40.608Z,10.57
2024-03-20T10:47:45.352Z,10.56
2024-03-20T10:48:49.585Z,10.54
2024-03-20T10:49:51.622Z,10.51
2024-03-20T10:50:55.174Z,10.50
2024-03-20T10:51:57.257Z,10.50
2024-03-20T10:52:59.913Z,10.50
2024-03-20T10:54:02.354Z,10.50
2024-03-20T10:55:07.134Z,10.49
2024-03-20T10:56:21.177Z,10.47
2024-03-20T10:57:24.253Z,10.49
2024-03-20T10:58:26.023Z,10.54
2024-03-20T10:59:32.287Z,10.62
2024-03-20T11:00:35.071Z,10.73
2024-03-20T11:01:38.129Z,10.84
2024-03-20T11:02:39.990Z,10.95
2024-03-20T11:03:52.408Z,11.05
2024-03-20T11:04:53.999Z,11.19
2024-03-20T11:05:55.592Z,11.30
2024-03-20T11:06:58.810Z,11.39
2024-03-20T11:08:01.304Z,11.45
2024-03-20T11:09:06.500Z,11.46
2024-03-20T11:10:27.730Z,11.45
2024-03-20T11:11:30.595Z,11.48
2024-03-20T11:12:36.568Z,11.52
2024-03-20T11:13:39.112Z,11.54
2024-03-20T11:14:44.880Z,11.53
2024-03-20T11:15:52.621Z,11.51
2024-03-20T11:17:00.496Z,11.49
2024-03-20T11:18:02.784Z,11.48
2024-03-20T11:19:07.162Z,11.46
2024-03-20T11:20:33.310Z,11.45
2024-03-20T11:21:37.221Z,11.43
2024-03-20T11:22:38.880Z,11.42
2024-03-20T11:23:42.774Z,11.43
2024-03-20T11:24:44.736Z,11.44
2024-03-20T11:25:46.438Z,11.47
2024-03-20T11:26:48.241Z,11.50
2024-03-20T11:27:50.852Z,11.55
2024-03-20T11:28:52.710Z,11.61
2024-03-20T11:29:54.278Z,11.69
2024-03-20T11:30:55.939Z,11.76
2024-03-20T11:31:57.526Z,11.84
2024-03-20T11:32:59.178Z,11.91
2024-03-20T11:34:04.885Z,11.99
2024-03-20T11:35:11.359Z,12.08
2024-03-20T11:36:14.690Z,12.14
2024-03-20T11:37:19.463Z,12.17
2024-03-20T11:38:29.116Z,12.18
2024-03-20T11:39:30.761Z,12.19
2024-03-20T11:40:33.490Z,12.22
2024-03-20T11:41:38.128Z,12.28
2024-03-20T11:42:41.207Z,12.36
2024-03-20T11:43:44.110Z,12.46
2024-03-20T11:44:45.756Z,12.57
2024-03-20T11:45:48.010Z,12.69
2024-03-20T11:46:49.645Z,12.82
2024-03-20T11:47:52.153Z,12.95
2024-03-20T11:48:54.161Z,13.07
2024-03-20T11:49:56.895Z,13.16
2024-03-20T11:50:58.426Z,13.23
2024-03-20T11:52:04.225Z,13.32
2024-03-20T11:53:07.229Z,13.41
2024-03-20T11:54:09.988Z,13.50
2024-03-20T11:55:14.579Z,13.60
2024-03-20T11:56:17.674Z,13.69
2024-03-20T11:57:20.486Z,13.77
2024-03-20T11:58:22.084Z,13.81
2024-03-20T11:59:25.366Z,13.85
2024-03-20T12:00:27.132Z,13.90
2024-03-20T12:01:28.982Z,13.92
2024-03-20T12:02:35.439Z,13.95
2024-03-20T12:03:38.355Z,13.99
2024-03-20T12:04:39.916Z,14.04
2024-03-20T12:05:41.456Z,14.12
2024-03-20T12:06:42.984Z,14.19
2024-03-20T12:07:45.129Z,14.21
2024-03-20T12:08:46.783Z,14.21
2024-03-20T12:09:48.363Z,14.21
2024-03-20T12:10:49.873Z,14.23
2024-03-20T12:11:51.453Z,14.27
2024-03-20T12:12:53.156Z,14.30
2024-03-20T12:13:55.981Z,14.34
2024-03-20T12:15:00.308Z,14.38
2024-03-20T12:16:02.074Z,14.43
2024-03-20T12:17:05.792Z,14.48
2024-03-20T12:18:09.535Z,14.51
2024-03-20T12:19:11.176Z,14.56
2024-03-20T12:20:13.390Z,14.61
2024-03-20T12:21:16.927Z,14.66
2024-03-20T12:22:20.315Z,14.72
2024-03-20T12:23:23.941Z,14.74
2024-03-20T12:24:26.780Z,14.76
2024-03-20T12:25:28.396Z,14.78
2024-03-20T12:26:30.367Z,14.80
2024-03-20T12:27:32.009Z,14.83
2024-03-20T12:28:33.898Z,14.88
2024-03-20T12:29:35.708Z,14.93
2024-03-20T12:30:39.545Z,14.98
2024-03-20T12:31:41.378Z,15.02
2024-03-20T12:32:43.025Z,15.03
2024-03-20T12:33:45.200Z,15.06
2024-03-20T12:34:46.753Z,15.09
2024-03-20T12:35:48.598Z,15.14
2024-03-20T12:36:50.157Z,15.20
2024-03-20T12:37:51.975Z,15.25
2024-03-20T12:38:56.500Z,15.30
2024-03-20T12:39:58.448Z,15.35
2024-03-20T12:41:00.419Z,15.40
2024-03-20T12:42:03.020Z,15.44
2024-03-20T12:43:05.373Z,15.49
2024-03-20T12:44:10.016Z,15.55
2024-03-20T12:45:11.808Z,15.62
2024-03-20T12:46:13.937Z,15.68
2024-03-20T12:47:16.477Z,15.72
2024-03-20T12:48:19.132Z,15.76
2024-03-20T12:49:21.134Z,15.79
2024-03-20T12:50:22.793Z,15.83
2024-03-20T12:51:27.898Z,15.87
2024-03-20T12:52:30.218Z,15.91
2024-03-20T12:53:31.973Z,15.96
2024-03-20T12:54:33.518Z,16.02
2024-03-20T12:55:35.201Z,16.08
2024-03-20T12:56:36.725Z,16.13
2024-03-20T12:57:38.770Z,16.14
2024-03-20T12:58:40.477Z,16.14
2024-03-20T12:59:42.688Z,16.15
2024-03-20T13:00:45.350Z,16.15
2024-03-20T13:01:47.011Z,16.17
2024-03-20T13:02:49.075Z,16.22
2024-03-20T13:03:50.639Z,16.29
2024-03-20T13:04:52.799Z,16.36
2024-03-20T13:05:56.997Z,16.42
2024-03-20T13:06:58.598Z,16.47
2024-03-20T13:08:00.426Z,16.51
2024-03-20T13:09:07.499Z,16.56
2024-03-20T13:10:11.664Z,16.60
2024-03-20T13:11:13.399Z,16.66
2024-03-20T13:12:15.826Z,16.74
2024-03-20T13:13:22.835Z,16.83
2024-03-20T13:14:24.406Z,16.93
2024-03-20T13:15:25.918Z,17.02
2024-03-20T13:16:27.683Z,17.11
2024-03-20T13:17:29.489Z,17.18
2024-03-20T13:18:41.504Z,17.26
2024-03-20T13:19:43.023Z,17.36
2024-03-20T13:20:44.587Z,17.42
2024-03-20T13:21:49.208Z,17.46
2024-03-20T13:22:50.805Z,17.49
2024-03-20T13:24:00.731Z,17.53
2024-03-20T13:25:06.557Z,17.54
2024-03-20T13:26:13.747Z,17.55
2024-03-20T13:27:19.133Z,17.54
2024-03-20T13:28:21.371Z,17.52
2024-03-20T13:29:28.448Z,17.49
2024-03-20T13:30:30.199Z,17.46
2024-03-20T13:31:34.846Z,17.44
2024-03-20T13:32:42.944Z,17.40
2024-03-20T13:33:48.122Z,17.36
2024-03-20T13:34:50.160Z,17.32
2024-03-20T13:35:52.810Z,17.28
2024-03-20T13:36:56.650Z,17.25
2024-03-20T13:38:07.122Z,17.21
2024-03-20T13:39:12.512Z,17.18
2024-03-20T13:40:32.897Z,17.13
2024-03-20T13:41:46.343Z,17.03
2024-03-20T13:42:59.546Z,16.93
2024-03-20T13:44:06.122Z,16.84
2024-03-20T13:45:19.032Z,16.74
2024-03-20T13:46:21.101Z,16.60
2024-03-20T13:47:22.620Z,16.49